sensor_id;sensor_type;location;lat;lon;timestamp;temperature;humidity
5222;DHT22;2630;52.036;8.514;2023-03-11T00:00:29;0.60;99.90
5222;DHT22;2630;52.036;8.514;2023-03-11T00:02:58;0.60;99.90
5222;DHT22;2630;52.036;8.514;2023-03-11T00:05:33;0.50;99.90
5222;DHT22;2630;52.036;8.514;2023-03-11T00:08:00;0.60;99.90
5222;DHT22;2630;52.036;8.514;2023-03-11T00:10:28;0.60;99.90
5222;DHT22;2630;52.036;8.514;2023-03-11T00:12:54;0.50;99.90
5222;DHT22;2630;52.036;8.514;2023-03-11T00:15:20;0.50;99.90
5222;DHT22;2630;52.036;8.514;2023-03-11T00:17:49;0.50;99.90
5222;DHT22;2630;52.036;8.514;2023-03-11T00:20:36;0.50;99.90
5222;DHT22;2630;52.036;8.514;2023-03-11T00:23:03;0.50;99.90
5222;DHT22;2630;52.036;8.514;2023-03-11T00:25:31;0.50;99.90
5222;DHT22;2630;52.036;8.514;2023-03-11T00:27:57;0.50;99.90
5222;DHT22;2630;52.036;8.514;2023-03-11T00:30:24;0.60;99.90
5222;DHT22;2630;52.036;8.514;2023-03-11T00:32:52;0.50;99.90
5222;DHT22;2630;52.036;8.514;2023-03-11T00:35:20;0.50;99.90
5222;DHT22;2630;52.036;8.514;2023-03-11T00:37:47;0.60;99.90
5222;DHT22;2630;52.036;8.514;2023-03-11T00:42:40;0.50;99.90
5222;DHT22;2630;52.036;8.514;2023-03-11T00:45:06;0.40;99.90
5222;DHT22;2630;52.036;8.514;2023-03-11T00:47:32;0.40;99.90
5222;DHT22;2630;52.036;8.514;2023-03-11T00:49:58;0.50;99.90
5222;DHT22;2630;52.036;8.514;2023-03-11T00:52:23;0.40;99.90
5222;DHT22;2630;52.036;8.514;2023-03-11T00:54:49;0.40;99.90
5222;DHT22;2630;52.036;8.514;2023-03-11T00:57:14;0.40;99.90
5222;DHT22;2630;52.036;8.514;2023-03-11T00:59:40;0.50;99.90
5222;DHT22;2630;52.036;8.514;2023-03-11T01:02:05;0.50;99.90
5222;DHT22;2630;52.036;8.514;2023-03-11T01:04:31;0.50;99.90
5222;DHT22;2630;52.036;8.514;2023-03-11T01:06:57;0.40;99.90
5222;DHT22;2630;52.036;8.514;2023-03-11T01:09:22;0.50;99.90
5222;DHT22;2630;52.036;8.514;2023-03-11T01:11:48;0.50;99.90
5222;DHT22;2630;52.036;8.514;2023-03-11T01:16:39;0.60;99.90
5222;DHT22;2630;52.036;8.514;2023-03-11T01:19:05;0.60;99.90
5222;DHT22;2630;52.036;8.514;2023-03-11T01:21:30;0.60;99.90
5222;DHT22;2630;52.036;8.514;2023-03-11T01:23:56;0.60;99.90
5222;DHT22;2630;52.036;8.514;2023-03-11T01:26:21;0.60;99.90
5222;DHT22;2630;52.036;8.514;2023-03-11T01:28:47;0.60;99.90
5222;DHT22;2630;52.036;8.514;2023-03-11T01:31:13;0.60;99.90
5222;DHT22;2630;52.036;8.514;2023-03-11T01:33:38;0.60;99.90
5222;DHT22;2630;52.036;8.514;2023-03-11T01:36:04;0.50;99.90
5222;DHT22;2630;52.036;8.514;2023-03-11T01:38:30;0.70;99.90
5222;DHT22;2630;52.036;8.514;2023-03-11T01:40:55;0.70;99.90
5222;DHT22;2630;52.036;8.514;2023-03-11T01:43:47;0.70;99.90
5222;DHT22;2630;52.036;8.514;2023-03-11T01:49:11;0.70;99.90
5222;DHT22;2630;52.036;8.514;2023-03-11T01:51:40;0.60;99.90
5222;DHT22;2630;52.036;8.514;2023-03-11T01:54:10;0.60;99.90
5222;DHT22;2630;52.036;8.514;2023-03-11T01:56:37;0.70;99.90
5222;DHT22;2630;52.036;8.514;2023-03-11T01:59:05;0.70;99.90
5222;DHT22;2630;52.036;8.514;2023-03-11T02:01:32;0.70;99.90
5222;DHT22;2630;52.036;8.514;2023-03-11T02:03:58;0.60;99.90
5222;DHT22;2630;52.036;8.514;2023-03-11T02:06:27;0.60;99.90
5222;DHT22;2630;52.036;8.514;2023-03-11T02:08:54;0.60;99.90
5222;DHT22;2630;52.036;8.514;2023-03-11T02:11:23;0.70;99.90
5222;DHT22;2630;52.036;8.514;2023-03-11T02:13:51;0.80;99.90
5222;DHT22;2630;52.036;8.514;2023-03-11T02:16:18;0.80;99.90
5222;DHT22;2630;52.036;8.514;2023-03-11T02:18:43;0.80;99.90
5222;DHT22;2630;52.036;8.514;2023-03-11T02:24:06;0.80;99.90
5222;DHT22;2630;52.036;8.514;2023-03-11T02:29:13;0.90;99.90
5222;DHT22;2630;52.036;8.514;2023-03-11T02:31:40;0.90;99.90
5222;DHT22;2630;52.036;8.514;2023-03-11T02:34:10;0.90;99.90
5222;DHT22;2630;52.036;8.514;2023-03-11T02:36:41;0.90;99.90
5222;DHT22;2630;52.036;8.514;2023-03-11T02:39:07;0.90;99.90
5222;DHT22;2630;52.036;8.514;2023-03-11T02:41:36;0.80;99.90
5222;DHT22;2630;52.036;8.514;2023-03-11T02:44:04;0.80;99.90
5222;DHT22;2630;52.036;8.514;2023-03-11T02:46:31;0.70;99.90
5222;DHT22;2630;52.036;8.514;2023-03-11T02:48:57;0.70;99.90
5222;DHT22;2630;52.036;8.514;2023-03-11T02:51:24;0.60;99.90
5222;DHT22;2630;52.036;8.514;2023-03-11T02:53:53;0.60;99.90
5222;DHT22;2630;52.036;8.514;2023-03-11T02:56:20;0.40;99.90
5222;DHT22;2630;52.036;8.514;2023-03-11T02:58:46;0.40;99.90
5222;DHT22;2630;52.036;8.514;2023-03-11T03:01:12;0.30;99.90
5222;DHT22;2630;52.036;8.514;2023-03-11T03:03:38;0.20;99.90
5222;DHT22;2630;52.036;8.514;2023-03-11T03:06:04;0.20;99.90
5222;DHT22;2630;52.036;8.514;2023-03-11T03:08:30;0.10;99.90
5222;DHT22;2630;52.036;8.514;2023-03-11T03:10:55;0.20;99.90
5222;DHT22;2630;52.036;8.514;2023-03-11T03:13:21;0.20;99.90
5222;DHT22;2630;52.036;8.514;2023-03-11T03:15:46;0.30;99.90
5222;DHT22;2630;52.036;8.514;2023-03-11T03:18:12;0.30;99.90
5222;DHT22;2630;52.036;8.514;2023-03-11T03:20:37;0.40;99.90
5222;DHT22;2630;52.036;8.514;2023-03-11T03:23:03;0.40;99.90
5222;DHT22;2630;52.036;8.514;2023-03-11T03:25:29;0.40;99.90
5222;DHT22;2630;52.036;8.514;2023-03-11T03:27:54;0.40;99.90
5222;DHT22;2630;52.036;8.514;2023-03-11T03:30:20;0.40;99.90
5222;DHT22;2630;52.036;8.514;2023-03-11T03:35:11;0.40;99.90
5222;DHT22;2630;52.036;8.514;2023-03-11T03:37:38;0.50;99.90
5222;DHT22;2630;52.036;8.514;2023-03-11T03:40:05;0.50;99.90
5222;DHT22;2630;52.036;8.514;2023-03-11T03:42:34;0.50;99.90
5222;DHT22;2630;52.036;8.514;2023-03-11T03:45:00;0.50;99.90
5222;DHT22;2630;52.036;8.514;2023-03-11T03:47:26;0.40;99.90
5222;DHT22;2630;52.036;8.514;2023-03-11T03:49:52;0.40;99.90
5222;DHT22;2630;52.036;8.514;2023-03-11T03:52:17;0.30;99.90
5222;DHT22;2630;52.036;8.514;2023-03-11T03:57:09;0.40;99.90
5222;DHT22;2630;52.036;8.514;2023-03-11T03:59:35;0.40;99.90
5222;DHT22;2630;52.036;8.514;2023-03-11T04:02:00;0.40;99.90
5222;DHT22;2630;52.036;8.514;2023-03-11T04:04:26;0.30;99.90
5222;DHT22;2630;52.036;8.514;2023-03-11T04:06:52;0.30;99.90
5222;DHT22;2630;52.036;8.514;2023-03-11T04:09:18;0.30;99.90
5222;DHT22;2630;52.036;8.514;2023-03-11T04:11:44;0.30;99.90
5222;DHT22;2630;52.036;8.514;2023-03-11T04:14:09;0.30;99.90
5222;DHT22;2630;52.036;8.514;2023-03-11T04:16:35;0.30;99.90
5222;DHT22;2630;52.036;8.514;2023-03-11T04:19:00;0.40;99.90
5222;DHT22;2630;52.036;8.514;2023-03-11T04:21:26;0.30;99.90
5222;DHT22;2630;52.036;8.514;2023-03-11T04:23:52;0.30;99.90
5222;DHT22;2630;52.036;8.514;2023-03-11T04:26:17;0.30;99.90
5222;DHT22;2630;52.036;8.514;2023-03-11T04:28:43;0.40;99.90
5222;DHT22;2630;52.036;8.514;2023-03-11T04:31:08;0.30;99.90
5222;DHT22;2630;52.036;8.514;2023-03-11T04:33:34;0.30;99.90
5222;DHT22;2630;52.036;8.514;2023-03-11T04:36:04;0.30;99.90
5222;DHT22;2630;52.036;8.514;2023-03-11T04:38:30;0.30;99.90
5222;DHT22;2630;52.036;8.514;2023-03-11T04:40:59;0.40;99.90
5222;DHT22;2630;52.036;8.514;2023-03-11T04:45:51;0.40;99.90
5222;DHT22;2630;52.036;8.514;2023-03-11T04:48:17;0.40;99.90
5222;DHT22;2630;52.036;8.514;2023-03-11T04:50:43;0.50;99.90
5222;DHT22;2630;52.036;8.514;2023-03-11T04:53:08;0.40;99.90
5222;DHT22;2630;52.036;8.514;2023-03-11T04:55:34;0.40;99.90
5222;DHT22;2630;52.036;8.514;2023-03-11T04:57:59;0.40;99.90
5222;DHT22;2630;52.036;8.514;2023-03-11T05:00:25;0.40;99.90
5222;DHT22;2630;52.036;8.514;2023-03-11T05:02:51;0.30;99.90
5222;DHT22;2630;52.036;8.514;2023-03-11T05:05:16;0.20;99.90
5222;DHT22;2630;52.036;8.514;2023-03-11T05:07:43;0.10;99.90
5222;DHT22;2630;52.036;8.514;2023-03-11T05:10:09;0.10;99.90
5222;DHT22;2630;52.036;8.514;2023-03-11T05:12:35;0.00;99.90
5222;DHT22;2630;52.036;8.514;2023-03-11T05:15:01;-0.10;99.90
5222;DHT22;2630;52.036;8.514;2023-03-11T05:17:26;-0.10;99.90
5222;DHT22;2630;52.036;8.514;2023-03-11T05:19:52;-0.10;99.90
5222;DHT22;2630;52.036;8.514;2023-03-11T05:22:19;-0.20;99.90
5222;DHT22;2630;52.036;8.514;2023-03-11T05:24:45;-0.10;99.90
5222;DHT22;2630;52.036;8.514;2023-03-11T05:27:12;-0.10;99.90
5222;DHT22;2630;52.036;8.514;2023-03-11T05:29:37;-0.20;99.90
5222;DHT22;2630;52.036;8.514;2023-03-11T05:32:03;-0.10;99.90
5222;DHT22;2630;52.036;8.514;2023-03-11T05:36:55;-0.10;99.90
5222;DHT22;2630;52.036;8.514;2023-03-11T05:39:21;-0.20;99.90
5222;DHT22;2630;52.036;8.514;2023-03-11T05:41:46;-0.30;99.90
5222;DHT22;2630;52.036;8.514;2023-03-11T05:44:12;-0.30;99.90
5222;DHT22;2630;52.036;8.514;2023-03-11T05:46:37;-0.30;99.90
5222;DHT22;2630;52.036;8.514;2023-03-11T05:49:03;-0.40;99.90
5222;DHT22;2630;52.036;8.514;2023-03-11T05:51:29;-0.40;99.90
5222;DHT22;2630;52.036;8.514;2023-03-11T05:53:54;-0.40;99.90
5222;DHT22;2630;52.036;8.514;2023-03-11T05:56:21;-0.50;99.90
5222;DHT22;2630;52.036;8.514;2023-03-11T05:58:47;-0.50;99.90
5222;DHT22;2630;52.036;8.514;2023-03-11T06:01:15;-0.60;99.90
5222;DHT22;2630;52.036;8.514;2023-03-11T06:03:41;-0.60;99.90
5222;DHT22;2630;52.036;8.514;2023-03-11T06:06:10;-0.60;99.90
5222;DHT22;2630;52.036;8.514;2023-03-11T06:11:05;-0.60;99.90
5222;DHT22;2630;52.036;8.514;2023-03-11T06:13:31;-0.60;99.90
5222;DHT22;2630;52.036;8.514;2023-03-11T06:15:56;-0.50;99.90
5222;DHT22;2630;52.036;8.514;2023-03-11T06:20:50;-0.40;99.90
5222;DHT22;2630;52.036;8.514;2023-03-11T06:23:16;-0.30;99.90
5222;DHT22;2630;52.036;8.514;2023-03-11T06:25:41;-0.20;99.90
5222;DHT22;2630;52.036;8.514;2023-03-11T06:28:07;-0.10;99.90
5222;DHT22;2630;52.036;8.514;2023-03-11T06:32:58;0.00;99.90
5222;DHT22;2630;52.036;8.514;2023-03-11T06:35:24;0.10;99.90
5222;DHT22;2630;52.036;8.514;2023-03-11T06:37:50;0.10;99.90
5222;DHT22;2630;52.036;8.514;2023-03-11T06:40:15;0.20;99.90
5222;DHT22;2630;52.036;8.514;2023-03-11T06:42:41;0.20;99.90
5222;DHT22;2630;52.036;8.514;2023-03-11T06:47:33;0.30;99.90
5222;DHT22;2630;52.036;8.514;2023-03-11T06:52:30;0.50;99.90
5222;DHT22;2630;52.036;8.514;2023-03-11T06:54:55;0.60;99.90
5222;DHT22;2630;52.036;8.514;2023-03-11T06:57:21;0.60;99.90
5222;DHT22;2630;52.036;8.514;2023-03-11T06:59:47;0.70;99.90
5222;DHT22;2630;52.036;8.514;2023-03-11T07:02:12;0.80;99.90
5222;DHT22;2630;52.036;8.514;2023-03-11T07:07:04;0.70;99.90
5222;DHT22;2630;52.036;8.514;2023-03-11T07:09:30;0.90;99.90
5222;DHT22;2630;52.036;8.514;2023-03-11T07:11:55;1.00;99.90
5222;DHT22;2630;52.036;8.514;2023-03-11T07:14:21;1.00;99.90
5222;DHT22;2630;52.036;8.514;2023-03-11T07:16:47;1.00;99.90
5222;DHT22;2630;52.036;8.514;2023-03-11T07:19:12;1.00;99.90
5222;DHT22;2630;52.036;8.514;2023-03-11T07:21:38;1.20;99.90
5222;DHT22;2630;52.036;8.514;2023-03-11T07:24:05;1.20;99.90
5222;DHT22;2630;52.036;8.514;2023-03-11T07:26:33;1.30;99.90
5222;DHT22;2630;52.036;8.514;2023-03-11T07:28:59;1.40;99.90
5222;DHT22;2630;52.036;8.514;2023-03-11T07:31:28;1.70;99.90
5222;DHT22;2630;52.036;8.514;2023-03-11T07:33:57;1.80;99.90
5222;DHT22;2630;52.036;8.514;2023-03-11T07:36:23;2.10;99.90
5222;DHT22;2630;52.036;8.514;2023-03-11T07:38:58;2.40;99.90
5222;DHT22;2630;52.036;8.514;2023-03-11T07:41:25;3.40;99.90
5222;DHT22;2630;52.036;8.514;2023-03-11T07:43:54;4.00;99.90
5222;DHT22;2630;52.036;8.514;2023-03-11T07:48:47;5.50;99.90
5222;DHT22;2630;52.036;8.514;2023-03-11T07:51:22;5.80;99.90
5222;DHT22;2630;52.036;8.514;2023-03-11T07:53:50;6.20;99.90
5222;DHT22;2630;52.036;8.514;2023-03-11T07:56:17;6.20;99.90
5222;DHT22;2630;52.036;8.514;2023-03-11T07:58:43;6.40;99.90
5222;DHT22;2630;52.036;8.514;2023-03-11T08:01:12;6.60;99.90
5222;DHT22;2630;52.036;8.514;2023-03-11T08:03:37;7.30;99.90
5222;DHT22;2630;52.036;8.514;2023-03-11T08:06:12;7.90;99.90
5222;DHT22;2630;52.036;8.514;2023-03-11T08:08:38;8.70;99.90
5222;DHT22;2630;52.036;8.514;2023-03-11T08:11:04;8.80;99.90
5222;DHT22;2630;52.036;8.514;2023-03-11T08:13:29;8.80;99.90
5222;DHT22;2630;52.036;8.514;2023-03-11T08:15:55;8.70;99.90
5222;DHT22;2630;52.036;8.514;2023-03-11T08:18:20;8.60;99.90
5222;DHT22;2630;52.036;8.514;2023-03-11T08:20:46;8.70;99.90
5222;DHT22;2630;52.036;8.514;2023-03-11T08:23:11;8.20;99.90
5222;DHT22;2630;52.036;8.514;2023-03-11T08:25:38;8.00;99.90
5222;DHT22;2630;52.036;8.514;2023-03-11T08:28:04;7.90;99.90
5222;DHT22;2630;52.036;8.514;2023-03-11T08:30:32;8.20;99.90
5222;DHT22;2630;52.036;8.514;2023-03-11T08:32:57;8.50;99.90
5222;DHT22;2630;52.036;8.514;2023-03-11T08:35:23;8.90;99.90
5222;DHT22;2630;52.036;8.514;2023-03-11T08:37:50;9.10;99.90
5222;DHT22;2630;52.036;8.514;2023-03-11T08:40:16;9.60;99.90
5222;DHT22;2630;52.036;8.514;2023-03-11T08:42:41;10.10;99.90
5222;DHT22;2630;52.036;8.514;2023-03-11T08:45:07;11.10;99.90
5222;DHT22;2630;52.036;8.514;2023-03-11T08:47:34;11.90;99.90
5222;DHT22;2630;52.036;8.514;2023-03-11T08:50:01;12.20;99.90
5222;DHT22;2630;52.036;8.514;2023-03-11T08:52:26;12.80;99.90
5222;DHT22;2630;52.036;8.514;2023-03-11T08:54:52;12.90;99.90
5222;DHT22;2630;52.036;8.514;2023-03-11T08:57:17;13.20;99.90
5222;DHT22;2630;52.036;8.514;2023-03-11T08:59:43;13.90;99.90
5222;DHT22;2630;52.036;8.514;2023-03-11T09:02:09;14.10;99.90
5222;DHT22;2630;52.036;8.514;2023-03-11T09:04:35;13.80;99.90
5222;DHT22;2630;52.036;8.514;2023-03-11T09:07:01;13.80;99.90
5222;DHT22;2630;52.036;8.514;2023-03-11T09:09:27;13.00;99.90
5222;DHT22;2630;52.036;8.514;2023-03-11T09:11:52;12.90;99.90
5222;DHT22;2630;52.036;8.514;2023-03-11T09:14:18;12.30;99.90
5222;DHT22;2630;52.036;8.514;2023-03-11T09:19:09;11.40;99.90
5222;DHT22;2630;52.036;8.514;2023-03-11T09:21:36;11.10;99.90
5222;DHT22;2630;52.036;8.514;2023-03-11T09:24:03;10.90;99.90
5222;DHT22;2630;52.036;8.514;2023-03-11T09:26:30;10.40;99.90
5222;DHT22;2630;52.036;8.514;2023-03-11T09:28:55;10.20;99.90
5222;DHT22;2630;52.036;8.514;2023-03-11T09:31:21;9.90;99.90
5222;DHT22;2630;52.036;8.514;2023-03-11T09:33:47;9.20;99.90
5222;DHT22;2630;52.036;8.514;2023-03-11T09:36:16;9.00;99.90
5222;DHT22;2630;52.036;8.514;2023-03-11T09:46:56;7.20;99.90
5222;DHT22;2630;52.036;8.514;2023-03-11T09:52:18;6.60;99.90
5222;DHT22;2630;52.036;8.514;2023-03-11T09:54:51;6.60;99.90
5222;DHT22;2630;52.036;8.514;2023-03-11T09:57:38;6.70;99.90
5222;DHT22;2630;52.036;8.514;2023-03-11T10:02:31;6.70;99.90
5222;DHT22;2630;52.036;8.514;2023-03-11T10:05:07;6.90;99.90
5222;DHT22;2630;52.036;8.514;2023-03-11T10:07:39;7.00;99.90
5222;DHT22;2630;52.036;8.514;2023-03-11T10:10:06;7.10;99.90
5222;DHT22;2630;52.036;8.514;2023-03-11T10:21:17;9.60;99.90
5222;DHT22;2630;52.036;8.514;2023-03-11T10:26:32;11.80;99.90
5222;DHT22;2630;52.036;8.514;2023-03-11T10:29:06;13.30;99.90
5222;DHT22;2630;52.036;8.514;2023-03-11T10:32:00;14.40;99.90
5222;DHT22;2630;52.036;8.514;2023-03-11T10:34:57;15.80;99.90
5222;DHT22;2630;52.036;8.514;2023-03-11T10:37:27;16.60;97.40
5222;DHT22;2630;52.036;8.514;2023-03-11T10:39:54;17.10;95.90
5222;DHT22;2630;52.036;8.514;2023-03-11T10:42:23;17.50;94.40
5222;DHT22;2630;52.036;8.514;2023-03-11T10:44:50;17.80;90.80
5222;DHT22;2630;52.036;8.514;2023-03-11T10:47:24;18.20;92.20
5222;DHT22;2630;52.036;8.514;2023-03-11T10:49:50;18.30;91.00
5222;DHT22;2630;52.036;8.514;2023-03-11T10:52:18;18.80;90.30
5222;DHT22;2630;52.036;8.514;2023-03-11T10:54:46;19.50;90.30
5222;DHT22;2630;52.036;8.514;2023-03-11T10:57:27;20.60;83.20
5222;DHT22;2630;52.036;8.514;2023-03-11T10:59:54;21.50;78.70
5222;DHT22;2630;52.036;8.514;2023-03-11T11:02:29;21.40;74.30
5222;DHT22;2630;52.036;8.514;2023-03-11T11:10:25;18.20;74.70
5222;DHT22;2630;52.036;8.514;2023-03-11T11:15:59;17.00;77.70
5222;DHT22;2630;52.036;8.514;2023-03-11T11:18:33;17.20;78.00
5222;DHT22;2630;52.036;8.514;2023-03-11T11:21:08;16.40;75.50
5222;DHT22;2630;52.036;8.514;2023-03-11T11:29:22;15.30;73.50
5222;DHT22;2630;52.036;8.514;2023-03-11T11:34:32;16.10;76.60
5222;DHT22;2630;52.036;8.514;2023-03-11T11:37:01;16.50;77.70
5222;DHT22;2630;52.036;8.514;2023-03-11T11:39:31;16.20;75.50
5222;DHT22;2630;52.036;8.514;2023-03-11T11:41:58;16.20;75.90
5222;DHT22;2630;52.036;8.514;2023-03-11T11:46:58;15.30;73.00
5222;DHT22;2630;52.036;8.514;2023-03-11T11:49:31;14.90;77.10
5222;DHT22;2630;52.036;8.514;2023-03-11T11:56:59;13.60;82.10
5222;DHT22;2630;52.036;8.514;2023-03-11T11:59:26;12.90;81.90
5222;DHT22;2630;52.036;8.514;2023-03-11T12:12:31;11.60;84.70
5222;DHT22;2630;52.036;8.514;2023-03-11T12:15:22;11.00;87.90
5222;DHT22;2630;52.036;8.514;2023-03-11T12:17:53;10.90;88.30
5222;DHT22;2630;52.036;8.514;2023-03-11T12:20:39;10.50;90.60
5222;DHT22;2630;52.036;8.514;2023-03-11T12:26:25;10.30;90.80
5222;DHT22;2630;52.036;8.514;2023-03-11T12:29:25;10.00;91.80
5222;DHT22;2630;52.036;8.514;2023-03-11T12:31:53;9.80;94.10
5222;DHT22;2630;52.036;8.514;2023-03-11T12:34:21;9.60;94.20
5222;DHT22;2630;52.036;8.514;2023-03-11T12:36:49;9.30;95.80
5222;DHT22;2630;52.036;8.514;2023-03-11T12:39:26;9.20;95.90
5222;DHT22;2630;52.036;8.514;2023-03-11T12:42:14;9.10;97.00
5222;DHT22;2630;52.036;8.514;2023-03-11T12:44:40;9.80;97.00
5222;DHT22;2630;52.036;8.514;2023-03-11T12:49:42;11.10;93.90
5222;DHT22;2630;52.036;8.514;2023-03-11T12:57:34;10.60;93.40
5222;DHT22;2630;52.036;8.514;2023-03-11T13:03:09;10.30;94.30
5222;DHT22;2630;52.036;8.514;2023-03-11T13:08:36;10.90;92.80
5222;DHT22;2630;52.036;8.514;2023-03-11T13:11:27;11.00;92.20
5222;DHT22;2630;52.036;8.514;2023-03-11T13:16:38;9.50;93.80
5222;DHT22;2630;52.036;8.514;2023-03-11T13:19:32;8.90;95.30
5222;DHT22;2630;52.036;8.514;2023-03-11T13:21:59;8.80;96.50
5222;DHT22;2630;52.036;8.514;2023-03-11T13:40:40;8.00;99.90
5222;DHT22;2630;52.036;8.514;2023-03-11T13:43:18;7.90;99.90
5222;DHT22;2630;52.036;8.514;2023-03-11T13:48:29;7.70;99.90
5222;DHT22;2630;52.036;8.514;2023-03-11T13:51:01;7.60;99.90
5222;DHT22;2630;52.036;8.514;2023-03-11T13:53:37;7.60;99.90
5222;DHT22;2630;52.036;8.514;2023-03-11T13:56:05;7.50;99.90
5222;DHT22;2630;52.036;8.514;2023-03-11T13:58:40;7.50;99.90
5222;DHT22;2630;52.036;8.514;2023-03-11T14:01:13;7.30;99.90
5222;DHT22;2630;52.036;8.514;2023-03-11T14:06:10;7.00;99.90
5222;DHT22;2630;52.036;8.514;2023-03-11T14:08:38;7.00;99.90
5222;DHT22;2630;52.036;8.514;2023-03-11T14:16:18;7.20;99.90
5222;DHT22;2630;52.036;8.514;2023-03-11T14:19:00;7.20;99.90
5222;DHT22;2630;52.036;8.514;2023-03-11T14:21:26;7.50;99.90
5222;DHT22;2630;52.036;8.514;2023-03-11T14:23:53;7.60;99.90
5222;DHT22;2630;52.036;8.514;2023-03-11T14:28:51;7.90;99.90
5222;DHT22;2630;52.036;8.514;2023-03-11T14:31:34;8.30;99.90
5222;DHT22;2630;52.036;8.514;2023-03-11T14:34:03;8.40;99.90
5222;DHT22;2630;52.036;8.514;2023-03-11T14:42:34;8.30;98.80
5222;DHT22;2630;52.036;8.514;2023-03-11T14:44:47;8.50;98.60
5222;DHT22;2630;52.036;8.514;2023-03-11T14:50:01;8.30;97.10
5222;DHT22;2630;52.036;8.514;2023-03-11T14:52:41;8.10;99.10
5222;DHT22;2630;52.036;8.514;2023-03-11T14:55:14;7.70;98.10
5222;DHT22;2630;52.036;8.514;2023-03-11T15:00:20;7.20;99.90
5222;DHT22;2630;52.036;8.514;2023-03-11T15:03:03;7.00;99.90
5222;DHT22;2630;52.036;8.514;2023-03-11T15:10:36;6.70;99.90
5222;DHT22;2630;52.036;8.514;2023-03-11T15:13:28;6.90;99.90
5222;DHT22;2630;52.036;8.514;2023-03-11T15:15:58;7.00;99.90
5222;DHT22;2630;52.036;8.514;2023-03-11T15:18:29;7.20;99.90
5222;DHT22;2630;52.036;8.514;2023-03-11T15:21:17;7.40;99.90
5222;DHT22;2630;52.036;8.514;2023-03-11T15:23:51;7.10;99.10
5222;DHT22;2630;52.036;8.514;2023-03-11T15:26:21;6.90;99.70
5222;DHT22;2630;52.036;8.514;2023-03-11T15:28:56;6.70;99.90
5222;DHT22;2630;52.036;8.514;2023-03-11T15:33:48;6.10;99.70
5222;DHT22;2630;52.036;8.514;2023-03-11T15:47:22;5.40;99.70
5222;DHT22;2630;52.036;8.514;2023-03-11T15:52:15;5.20;99.90
5222;DHT22;2630;52.036;8.514;2023-03-11T15:57:22;5.00;99.90
5222;DHT22;2630;52.036;8.514;2023-03-11T15:59:50;4.80;99.90
5222;DHT22;2630;52.036;8.514;2023-03-11T16:02:25;4.70;99.90
5222;DHT22;2630;52.036;8.514;2023-03-11T16:04:51;4.70;99.90
5222;DHT22;2630;52.036;8.514;2023-03-11T16:07:17;4.60;99.90
5222;DHT22;2630;52.036;8.514;2023-03-11T16:09:43;4.50;99.90
5222;DHT22;2630;52.036;8.514;2023-03-11T16:12:19;4.40;99.90
5222;DHT22;2630;52.036;8.514;2023-03-11T16:14:46;4.40;99.90
5222;DHT22;2630;52.036;8.514;2023-03-11T16:17:13;4.30;99.90
5222;DHT22;2630;52.036;8.514;2023-03-11T16:19:43;4.30;99.90
5222;DHT22;2630;52.036;8.514;2023-03-11T16:22:32;4.20;99.90
5222;DHT22;2630;52.036;8.514;2023-03-11T16:24:59;4.20;99.90
5222;DHT22;2630;52.036;8.514;2023-03-11T16:27:26;4.20;99.90
5222;DHT22;2630;52.036;8.514;2023-03-11T16:29:52;4.00;99.90
5222;DHT22;2630;52.036;8.514;2023-03-11T16:32:18;4.00;99.90
5222;DHT22;2630;52.036;8.514;2023-03-11T16:34:43;3.90;99.90
5222;DHT22;2630;52.036;8.514;2023-03-11T16:37:14;3.90;99.90
5222;DHT22;2630;52.036;8.514;2023-03-11T16:39:41;3.90;99.90
5222;DHT22;2630;52.036;8.514;2023-03-11T16:42:07;3.80;99.90
5222;DHT22;2630;52.036;8.514;2023-03-11T16:44:32;3.80;99.90
5222;DHT22;2630;52.036;8.514;2023-03-11T16:46:58;3.80;99.90
5222;DHT22;2630;52.036;8.514;2023-03-11T16:49:24;3.60;99.90
5222;DHT22;2630;52.036;8.514;2023-03-11T16:51:49;3.60;99.90
5222;DHT22;2630;52.036;8.514;2023-03-11T16:54:15;3.60;99.90
5222;DHT22;2630;52.036;8.514;2023-03-11T17:01:33;3.30;99.90
5222;DHT22;2630;52.036;8.514;2023-03-11T17:08:55;3.20;99.90
5222;DHT22;2630;52.036;8.514;2023-03-11T17:13:49;3.00;99.90
5222;DHT22;2630;52.036;8.514;2023-03-11T17:16:14;2.90;99.90
5222;DHT22;2630;52.036;8.514;2023-03-11T17:18:41;2.80;99.90
5222;DHT22;2630;52.036;8.514;2023-03-11T17:23:35;2.60;99.90
5222;DHT22;2630;52.036;8.514;2023-03-11T17:30:53;2.20;99.90
5222;DHT22;2630;52.036;8.514;2023-03-11T17:33:19;2.20;99.90
5222;DHT22;2630;52.036;8.514;2023-03-11T17:38:11;2.00;99.90
5222;DHT22;2630;52.036;8.514;2023-03-11T17:40:37;1.90;99.90
5222;DHT22;2630;52.036;8.514;2023-03-11T17:45:28;1.70;99.90
5222;DHT22;2630;52.036;8.514;2023-03-11T17:47:54;1.50;99.90
5222;DHT22;2630;52.036;8.514;2023-03-11T17:50:20;1.50;99.90
5222;DHT22;2630;52.036;8.514;2023-03-11T17:52:46;1.30;99.90
5222;DHT22;2630;52.036;8.514;2023-03-11T17:57:37;1.10;99.90
5222;DHT22;2630;52.036;8.514;2023-03-11T18:00:03;1.10;99.90
5222;DHT22;2630;52.036;8.514;2023-03-11T18:02:32;1.00;99.90
5222;DHT22;2630;52.036;8.514;2023-03-11T18:04:57;0.90;99.90
5222;DHT22;2630;52.036;8.514;2023-03-11T18:07:23;0.90;99.90
5222;DHT22;2630;52.036;8.514;2023-03-11T18:09:51;0.80;99.90
5222;DHT22;2630;52.036;8.514;2023-03-11T18:12:18;0.80;99.90
5222;DHT22;2630;52.036;8.514;2023-03-11T18:14:44;0.70;99.90
5222;DHT22;2630;52.036;8.514;2023-03-11T18:17:09;0.60;99.90
5222;DHT22;2630;52.036;8.514;2023-03-11T18:19:35;0.60;99.90
5222;DHT22;2630;52.036;8.514;2023-03-11T18:22:00;0.60;99.90
5222;DHT22;2630;52.036;8.514;2023-03-11T18:24:26;0.50;99.90
5222;DHT22;2630;52.036;8.514;2023-03-11T18:31:44;0.60;99.90
5222;DHT22;2630;52.036;8.514;2023-03-11T18:34:10;0.50;99.90
5222;DHT22;2630;52.036;8.514;2023-03-11T18:36:39;0.50;99.90
5222;DHT22;2630;52.036;8.514;2023-03-11T18:46:27;0.40;99.90
5222;DHT22;2630;52.036;8.514;2023-03-11T18:48:55;0.30;99.90
5222;DHT22;2630;52.036;8.514;2023-03-11T18:51:25;0.20;99.90
5222;DHT22;2630;52.036;8.514;2023-03-11T18:53:51;0.20;99.90
5222;DHT22;2630;52.036;8.514;2023-03-11T18:56:17;0.20;99.90
5222;DHT22;2630;52.036;8.514;2023-03-11T18:58:43;0.20;99.90
5222;DHT22;2630;52.036;8.514;2023-03-11T19:01:12;0.10;99.90
5222;DHT22;2630;52.036;8.514;2023-03-11T19:03:40;0.10;99.90
5222;DHT22;2630;52.036;8.514;2023-03-11T19:06:07;0.10;99.90
5222;DHT22;2630;52.036;8.514;2023-03-11T19:08:33;0.00;99.90
5222;DHT22;2630;52.036;8.514;2023-03-11T19:13:25;-0.10;99.90
5222;DHT22;2630;52.036;8.514;2023-03-11T19:15:51;-0.10;99.90
5222;DHT22;2630;52.036;8.514;2023-03-11T19:18:17;0.00;99.90
5222;DHT22;2630;52.036;8.514;2023-03-11T19:25:36;-0.10;99.90
5222;DHT22;2630;52.036;8.514;2023-03-11T19:30:27;0.00;99.90
5222;DHT22;2630;52.036;8.514;2023-03-11T19:32:53;0.00;99.90
5222;DHT22;2630;52.036;8.514;2023-03-11T19:40:12;0.20;99.90
5222;DHT22;2630;52.036;8.514;2023-03-11T19:42:37;0.20;99.90
5222;DHT22;2630;52.036;8.514;2023-03-11T19:45:03;0.30;99.90
5222;DHT22;2630;52.036;8.514;2023-03-11T19:47:29;0.30;99.90
5222;DHT22;2630;52.036;8.514;2023-03-11T19:49:55;0.30;99.90
5222;DHT22;2630;52.036;8.514;2023-03-11T19:54:48;0.40;99.90
5222;DHT22;2630;52.036;8.514;2023-03-11T19:59:40;0.50;99.90
5222;DHT22;2630;52.036;8.514;2023-03-11T20:04:32;0.60;99.90
5222;DHT22;2630;52.036;8.514;2023-03-11T20:09:24;0.60;99.90
5222;DHT22;2630;52.036;8.514;2023-03-11T20:11:49;0.60;99.90
5222;DHT22;2630;52.036;8.514;2023-03-11T20:14:15;0.60;99.90
5222;DHT22;2630;52.036;8.514;2023-03-11T20:16:41;0.60;99.90
5222;DHT22;2630;52.036;8.514;2023-03-11T20:19:07;0.60;99.90
5222;DHT22;2630;52.036;8.514;2023-03-11T20:21:33;0.70;99.90
5222;DHT22;2630;52.036;8.514;2023-03-11T20:24:03;0.70;99.90
5222;DHT22;2630;52.036;8.514;2023-03-11T20:26:29;0.60;99.90
5222;DHT22;2630;52.036;8.514;2023-03-11T20:28:55;0.60;99.90